createdAt,value
2018-03-21T00:01:58.599Z,94851.91
2018-03-21T00:04:25.097Z,94853.63
2018-03-21T00:06:52.061Z,94853.32
2018-03-21T00:09:19.340Z,94844.98
2018-03-21T00:11:46.173Z,94830.89
2018-03-21T00:14:13.059Z,94825.56
2018-03-21T00:16:42.209Z,94834.05
2018-03-21T00:19:08.798Z,94836.30
2018-03-21T00:21:35.813Z,94835.04
2018-03-21T00:24:02.800Z,94816.20
2018-03-21T00:26:29.428Z,94806.73
2018-03-21T00:28:56.294Z,94802.13
2018-03-21T00:31:22.941Z,94805.63
2018-03-21T00:33:49.509Z,94800.66
2018-03-21T00:36:16.793Z,94794.96
2018-03-21T00:38:43.834Z,94793.97
2018-03-21T00:41:11.040Z,94792.75
2018-03-21T00:43:40.206Z,94774.31
2018-03-21T00:46:07.743Z,94774.11
2018-03-21T00:48:34.339Z,94769.66
2018-03-21T00:51:01.298Z,94780.45
2018-03-21T00:53:28.001Z,94777.42
2018-03-21T00:55:54.885Z,94782.69
2018-03-21T00:58:22.058Z,94773.91
2018-03-21T01:00:48.852Z,94779.30
2018-03-21T01:03:15.749Z,94775.02
2018-03-21T01:05:42.842Z,94771.88
2018-03-21T01:08:09.926Z,94769.91
2018-03-21T01:10:36.611Z,94772.72
2018-03-21T01:13:03.610Z,94774.17
2018-03-21T01:15:30.454Z,94767.08
2018-03-21T01:17:57.726Z,94760.03
2018-03-21T01:20:24.206Z,94768.85
2018-03-21T01:22:51.166Z,94764.94
2018-03-21T01:25:18.601Z,94764.19
2018-03-21T01:27:45.357Z,94757.66
2018-03-21T01:30:12.303Z,94757.92
2018-03-21T01:32:38.915Z,94754.70
2018-03-21T01:35:05.600Z,94769.89
2018-03-21T01:37:32.586Z,94776.16
2018-03-21T01:39:59.456Z,94788.23
2018-03-21T01:42:26.373Z,94785.05
2018-03-21T01:44:53.426Z,94795.95
2018-03-21T01:47:19.886Z,94793.13
2018-03-21T01:49:47.000Z,94797.58
2018-03-21T01:52:13.527Z,94799.52
2018-03-21T01:54:40.504Z,94803.79
2018-03-21T01:57:07.574Z,94806.14
2018-03-21T01:59:34.943Z,94800.61
2018-03-21T02:02:01.971Z,94800.80
2018-03-21T02:04:28.832Z,94801.68
2018-03-21T02:06:55.731Z,94801.53
2018-03-21T02:09:22.438Z,94803.79
2018-03-21T02:11:49.783Z,94811.10
2018-03-21T02:14:16.581Z,94804.05
2018-03-21T02:16:43.256Z,94790.47
2018-03-21T02:19:09.918Z,94792.45
2018-03-21T02:21:37.575Z,94785.09
2018-03-21T02:24:04.923Z,94786.77
2018-03-21T02:26:31.913Z,94779.92
2018-03-21T02:28:58.583Z,94769.88
2018-03-21T02:31:28.750Z,94765.33
2018-03-21T02:33:57.147Z,94778.86
2018-03-21T02:36:24.574Z,94770.94
2018-03-21T02:38:51.191Z,94765.58
2018-03-21T02:41:18.025Z,94764.06
2018-03-21T02:43:45.008Z,94765.56
2018-03-21T02:46:11.560Z,94770.58
2018-03-21T02:48:38.594Z,94768.87
2018-03-21T02:51:05.516Z,94762.63
2018-03-21T02:53:32.222Z,94771.02
2018-03-21T02:55:58.989Z,94761.30
2018-03-21T02:58:25.935Z,94738.60
2018-03-21T03:00:52.920Z,94725.90
2018-03-21T03:03:19.709Z,94722.56
2018-03-21T03:05:46.664Z,94729.70
2018-03-21T03:08:13.292Z,94731.89
2018-03-21T03:10:40.180Z,94735.19
2018-03-21T03:13:09.176Z,94734.64
2018-03-21T03:15:35.985Z,94725.30
2018-03-21T03:18:02.786Z,94717.57
2018-03-21T03:20:29.634Z,94725.09
2018-03-21T03:22:56.518Z,94731.37
2018-03-21T03:25:23.395Z,94724.30
2018-03-21T03:27:50.086Z,94729.45
2018-03-21T03:30:17.046Z,94714.70
2018-03-21T03:32:43.802Z,94723.58
2018-03-21T03:35:10.494Z,94711.53
2018-03-21T03:40:11.128Z,94717.23
2018-03-21T03:42:37.954Z,94705.76
2018-03-21T03:45:04.538Z,94707.36
2018-03-21T03:47:31.131Z,94688.08
2018-03-21T03:49:57.897Z,94683.88
2018-03-21T03:52:24.547Z,94694.55
2018-03-21T03:54:51.403Z,94683.20
2018-03-21T03:57:17.918Z,94679.13
2018-03-21T03:59:45.070Z,94688.77
2018-03-21T04:02:12.020Z,94687.41
2018-03-21T04:04:38.569Z,94684.38
2018-03-21T04:07:07.040Z,94677.77
2018-03-21T04:09:33.704Z,94684.62
2018-03-21T04:12:00.466Z,94682.16
2018-03-21T04:14:29.150Z,94682.91
2018-03-21T04:16:57.935Z,94687.69
2018-03-21T04:19:24.898Z,94687.28
2018-03-21T04:21:52.267Z,94695.80
2018-03-21T04:24:19.349Z,94690.59
2018-03-21T04:26:46.407Z,94702.25
2018-03-21T04:29:14.516Z,94696.59
2018-03-21T04:31:41.206Z,94688.24
2018-03-21T04:34:10.519Z,94705.67
2018-03-21T04:36:38.445Z,94710.38
2018-03-21T04:39:07.312Z,94710.86
2018-03-21T04:41:34.836Z,94706.50
2018-03-21T04:44:02.022Z,94709.34
2018-03-21T04:46:28.913Z,94708.77
2018-03-21T04:48:57.600Z,94710.98
2018-03-21T04:51:24.784Z,94717.14
2018-03-21T04:53:51.638Z,94729.41
2018-03-21T04:58:53.025Z,94741.95
2018-03-21T05:01:19.854Z,94752.28
2018-03-21T05:03:46.775Z,94756.53
2018-03-21T05:06:13.861Z,94758.33
2018-03-21T05:08:40.619Z,94749.18
2018-03-21T05:11:08.028Z,94753.02
2018-03-21T05:13:34.888Z,94753.47
2018-03-21T05:16:02.155Z,94771.04
2018-03-21T05:18:28.970Z,94771.70
2018-03-21T05:20:55.838Z,94766.61
2018-03-21T05:23:23.697Z,94764.36
2018-03-21T05:25:50.679Z,94759.91
2018-03-21T05:28:17.727Z,94771.32
2018-03-21T05:30:44.788Z,94772.48
2018-03-21T05:33:11.919Z,94765.43
2018-03-21T05:35:39.293Z,94778.02
2018-03-21T05:38:06.351Z,94765.86
2018-03-21T05:40:33.167Z,94772.64
2018-03-21T05:43:00.809Z,94773.79
2018-03-21T05:45:27.647Z,94776.41
2018-03-21T05:47:54.534Z,94779.27
2018-03-21T05:50:22.879Z,94790.16
2018-03-21T05:52:49.727Z,94779.76
2018-03-21T05:55:17.691Z,94780.44
2018-03-21T05:57:46.979Z,94777.73
2018-03-21T06:00:14.631Z,94773.92
2018-03-21T06:02:41.811Z,94781.89
2018-03-21T06:05:08.757Z,94775.22
2018-03-21T06:07:35.982Z,94773.64
2018-03-21T06:10:02.983Z,94778.16
2018-03-21T06:12:29.831Z,94781.81
2018-03-21T06:14:56.887Z,94793.50
2018-03-21T06:17:24.111Z,94799.81
2018-03-21T06:19:50.794Z,94797.13
2018-03-21T06:22:17.574Z,94798.16
2018-03-21T06:24:44.278Z,94790.16
2018-03-21T06:27:11.003Z,94787.28
2018-03-21T06:29:38.266Z,94792.55
2018-03-21T06:32:05.015Z,94783.20
2018-03-21T06:34:32.823Z,94790.16
2018-03-21T06:36:59.877Z,94798.14
2018-03-21T06:39:26.749Z,94804.80
2018-03-21T06:41:53.490Z,94809.11
2018-03-21T06:44:20.145Z,94797.15
2018-03-21T06:46:47.377Z,94795.04
2018-03-21T06:49:14.989Z,94791.48
2018-03-21T06:51:41.972Z,94783.58
2018-03-21T06:54:09.263Z,94786.47
2018-03-21T06:56:36.700Z,94770.19
2018-03-21T06:59:03.753Z,94755.69
2018-03-21T07:01:30.774Z,94755.88
2018-03-21T07:03:57.744Z,94758.66
2018-03-21T07:06:24.678Z,94751.36
2018-03-21T07:08:51.203Z,94760.26
2018-03-21T07:11:18.338Z,94767.00
2018-03-21T07:13:57.295Z,94776.16
2018-03-21T07:16:36.913Z,94789.50
2018-03-21T07:19:03.862Z,94788.23
2018-03-21T07:21:30.920Z,94789.72
2018-03-21T07:23:57.934Z,94802.44
2018-03-21T07:26:24.811Z,94794.14
2018-03-21T07:28:51.653Z,94791.78
2018-03-21T07:31:18.487Z,94791.08
2018-03-21T07:33:45.567Z,94785.82
2018-03-21T07:36:12.457Z,94788.19
2018-03-21T07:38:39.628Z,94786.97
2018-03-21T07:41:06.890Z,94784.83
2018-03-21T07:43:34.206Z,94795.23
2018-03-21T07:46:01.422Z,94796.63
2018-03-21T07:48:28.349Z,94789.13
2018-03-21T07:50:55.204Z,94778.09
2018-03-21T07:53:21.827Z,94756.00
2018-03-21T07:55:48.736Z,94752.41
2018-03-21T07:58:15.841Z,94758.16
2018-03-21T08:00:43.052Z,94759.04
2018-03-21T08:03:09.904Z,94755.74
2018-03-21T08:05:36.606Z,94762.04
2018-03-21T08:08:03.798Z,94742.45
2018-03-21T08:10:31.856Z,94746.80
2018-03-21T08:12:58.941Z,94752.75
2018-03-21T08:15:25.692Z,94745.51
2018-03-21T08:17:53.217Z,94762.20
2018-03-21T08:20:20.125Z,94771.38
2018-03-21T08:22:46.872Z,94768.52
2018-03-21T08:25:14.107Z,94773.45
2018-03-21T08:27:41.187Z,94770.70
2018-03-21T08:30:09.154Z,94772.16
2018-03-21T08:32:36.076Z,94756.73
2018-03-21T08:35:03.397Z,94744.78
2018-03-21T08:37:30.794Z,94752.81
2018-03-21T08:39:57.649Z,94764.31
2018-03-21T08:42:24.485Z,94768.14
2018-03-21T08:44:51.584Z,94775.58
2018-03-21T08:47:18.435Z,94768.46
2018-03-21T08:49:45.562Z,94763.95
2018-03-21T08:52:12.314Z,94752.09
2018-03-21T08:54:39.377Z,94758.22
2018-03-21T08:57:06.190Z,94735.96
2018-03-21T08:59:32.868Z,94739.05
2018-03-21T09:01:59.572Z,94741.80
2018-03-21T09:04:26.701Z,94736.53
2018-03-21T09:06:53.945Z,94726.11
2018-03-21T09:09:21.166Z,94724.47
2018-03-21T09:11:48.421Z,94734.34
2018-03-21T09:14:15.528Z,94742.50
2018-03-21T09:16:42.620Z,94751.87
2018-03-21T09:19:09.942Z,94763.41
2018-03-21T09:21:37.057Z,94759.55
2018-03-21T09:24:03.750Z,94753.48
2018-03-21T09:26:30.809Z,94765.32
2018-03-21T09:28:58.235Z,94764.52
2018-03-21T09:31:25.770Z,94761.84
2018-03-21T09:33:52.634Z,94765.19
2018-03-21T09:36:19.855Z,94761.52
2018-03-21T09:38:47.198Z,94752.75
2018-03-21T09:41:13.987Z,94757.14
2018-03-21T09:43:40.946Z,94745.23
2018-03-21T09:46:07.651Z,94733.98
2018-03-21T09:48:34.977Z,94724.14
2018-03-21T09:51:01.813Z,94719.63
2018-03-21T09:53:28.688Z,94703.00
2018-03-21T09:55:56.368Z,94675.98
2018-03-21T09:58:23.477Z,94665.84
2018-03-21T10:00:50.416Z,94649.45
2018-03-21T10:03:17.537Z,94638.22
2018-03-21T10:05:44.383Z,94692.09
2018-03-21T10:08:11.050Z,94709.31
2018-03-21T10:10:37.894Z,94691.34
2018-03-21T10:13:04.723Z,94671.36
2018-03-21T10:15:31.570Z,94685.11
2018-03-21T10:17:58.785Z,94719.41
2018-03-21T10:20:25.934Z,94727.34
2018-03-21T10:22:52.794Z,94719.58
2018-03-21T10:25:19.537Z,94720.16
2018-03-21T10:27:46.721Z,94721.70
2018-03-21T10:30:13.524Z,94720.25
2018-03-21T10:32:40.790Z,94697.89
2018-03-21T10:35:09.289Z,94687.36
2018-03-21T10:37:36.175Z,94692.42
2018-03-21T10:40:03.318Z,94702.77
2018-03-21T10:42:30.535Z,94700.73
2018-03-21T10:44:57.469Z,94709.55
2018-03-21T10:47:24.414Z,94703.84
2018-03-21T10:49:51.421Z,94707.27
2018-03-21T10:52:18.484Z,94719.59
2018-03-21T10:54:45.922Z,94704.59
2018-03-21T10:57:12.838Z,94701.97
2018-03-21T10:59:39.662Z,94708.98
2018-03-21T11:02:12.833Z,94708.25
2018-03-21T11:04:39.811Z,94711.44
2018-03-21T11:07:07.132Z,94702.47
2018-03-21T11:09:34.187Z,94690.20
2018-03-21T11:12:01.148Z,94688.97
2018-03-21T11:14:28.179Z,94689.09
2018-03-21T11:16:55.326Z,94694.36
2018-03-21T11:19:22.378Z,94709.41
2018-03-21T11:21:49.406Z,94693.83
2018-03-21T11:24:16.393Z,94705.64
2018-03-21T11:26:43.626Z,94713.39
2018-03-21T11:29:11.747Z,94728.69
2018-03-21T11:31:39.079Z,94728.14
2018-03-21T11:34:07.118Z,94731.81
2018-03-21T11:36:34.054Z,94732.49
2018-03-21T11:39:01.309Z,94737.19
2018-03-21T11:41:28.853Z,94733.28
2018-03-21T11:43:55.992Z,94739.88
2018-03-21T11:46:23.039Z,94736.88
2018-03-21T11:48:50.180Z,94727.34
2018-03-21T11:51:17.150Z,94721.38
2018-03-21T11:53:44.812Z,94737.70
2018-03-21T11:56:11.627Z,94742.83
2018-03-21T11:58:38.561Z,94728.95
2018-03-21T12:01:05.904Z,94717.80
2018-03-21T12:03:32.717Z,94727.47
2018-03-21T12:05:59.571Z,94724.53
2018-03-21T12:08:33.188Z,94737.45
2018-03-21T12:11:00.637Z,94731.12
2018-03-21T12:13:27.867Z,94742.51
2018-03-21T12:15:54.932Z,94736.36
2018-03-21T12:18:23.051Z,94731.23
2018-03-21T12:20:49.570Z,94749.91
2018-03-21T12:23:16.501Z,94752.48
2018-03-21T12:25:43.227Z,94752.52
2018-03-21T12:28:10.149Z,94770.99
2018-03-21T12:30:36.974Z,94777.65
2018-03-21T12:33:04.718Z,94775.52
2018-03-21T12:35:31.592Z,94780.81
2018-03-21T12:37:58.341Z,94776.02
2018-03-21T12:40:25.273Z,94791.53
2018-03-21T12:42:51.933Z,94795.82
2018-03-21T12:45:18.934Z,94803.63
2018-03-21T12:47:45.879Z,94823.35
2018-03-21T12:50:12.705Z,94788.16
2018-03-21T12:52:39.454Z,94817.29
2018-03-21T12:55:06.300Z,94820.13
2018-03-21T12:57:33.614Z,94839.64
2018-03-21T13:00:00.439Z,94809.03
2018-03-21T13:02:27.162Z,94838.55
2018-03-21T13:04:54.545Z,94824.10
2018-03-21T13:07:21.265Z,94834.67
2018-03-21T13:09:49.015Z,94871.80
2018-03-21T13:12:15.626Z,94874.07
2018-03-21T13:14:42.610Z,94849.95
2018-03-21T13:17:09.686Z,94869.16
2018-03-21T13:19:36.611Z,94891.19
2018-03-21T13:22:03.200Z,94873.72
2018-03-21T13:24:29.957Z,94890.80
2018-03-21T13:26:57.098Z,94844.30
2018-03-21T13:29:23.797Z,94910.42
2018-03-21T13:31:50.351Z,94903.02
2018-03-21T13:34:17.321Z,94927.18
2018-03-21T13:36:44.066Z,94922.81
2018-03-21T13:39:11.059Z,94929.78
2018-03-21T13:41:37.702Z,94926.78
2018-03-21T13:44:04.578Z,94921.53
2018-03-21T13:46:31.498Z,94911.77
2018-03-21T13:48:59.739Z,94933.14
2018-03-21T13:51:27.035Z,94933.92
2018-03-21T13:53:53.796Z,94907.16
2018-03-21T13:56:20.655Z,94934.16
2018-03-21T13:58:47.595Z,94911.01
2018-03-21T14:01:14.344Z,94943.98
2018-03-21T14:03:40.946Z,94927.58
2018-03-21T14:06:08.451Z,94949.44
2018-03-21T14:08:35.301Z,94939.09
2018-03-21T14:11:02.692Z,94929.71
2018-03-21T14:13:29.308Z,94940.44
2018-03-21T14:15:55.947Z,94945.05
2018-03-21T14:18:22.756Z,94930.41
2018-03-21T14:20:50.113Z,94936.16
2018-03-21T14:23:17.361Z,94954.89
2018-03-21T14:25:44.202Z,94972.95
2018-03-21T14:28:10.926Z,94963.14
2018-03-21T14:30:37.659Z,94969.39
2018-03-21T14:33:04.572Z,94969.66
2018-03-21T14:35:31.466Z,94949.27
2018-03-21T14:37:58.474Z,94974.14
2018-03-21T14:40:25.410Z,94966.20
2018-03-21T14:42:53.000Z,94997.03
2018-03-21T14:45:19.960Z,94992.20
2018-03-21T14:47:46.598Z,94976.98
2018-03-21T14:50:13.525Z,95015.94
2018-03-21T14:52:40.718Z,95014.38
2018-03-21T14:55:08.147Z,94987.05
2018-03-21T14:57:35.011Z,94978.34
2018-03-21T15:00:02.149Z,94994.17
2018-03-21T15:02:28.979Z,94977.98
2018-03-21T15:04:55.755Z,94994.42
2018-03-21T15:07:22.435Z,95007.68
2018-03-21T15:09:49.206Z,95012.00
2018-03-21T15:12:15.727Z,95037.25
2018-03-21T15:14:42.386Z,95021.53
2018-03-21T15:17:09.267Z,95041.50
2018-03-21T15:19:36.483Z,95043.00
2018-03-21T15:22:03.407Z,95032.03
2018-03-21T15:24:29.925Z,95038.63
2018-03-21T15:26:58.431Z,95053.79
2018-03-21T15:29:25.516Z,95040.41
2018-03-21T15:31:52.419Z,95064.18
2018-03-21T15:34:19.335Z,95061.27
2018-03-21T15:36:46.467Z,95076.56
2018-03-21T15:39:14.027Z,95062.72
2018-03-21T15:41:40.912Z,95084.84
2018-03-21T15:44:08.647Z,95090.90
2018-03-21T15:46:35.902Z,95085.15
2018-03-21T15:49:02.735Z,95107.25
2018-03-21T15:51:29.805Z,95095.03
2018-03-21T15:53:56.678Z,95107.75
2018-03-21T15:56:23.641Z,95114.93
2018-03-21T15:58:50.498Z,95110.94
2018-03-21T16:01:17.845Z,95112.30
2018-03-21T16:03:44.456Z,95113.93
2018-03-21T16:06:12.223Z,95110.33
2018-03-21T16:08:39.052Z,95119.50
2018-03-21T16:11:05.882Z,95128.64
2018-03-21T16:13:33.240Z,95122.95
2018-03-21T16:16:01.319Z,95121.88
2018-03-21T16:18:28.714Z,95150.39
2018-03-21T16:20:55.443Z,95147.52
2018-03-21T16:23:22.155Z,95147.12
2018-03-21T16:25:49.190Z,95154.92
2018-03-21T16:28:16.341Z,95155.91
2018-03-21T16:30:43.435Z,95163.61
2018-03-21T16:33:10.435Z,95160.00
2018-03-21T16:35:37.038Z,95159.53
2018-03-21T16:38:04.201Z,95157.42
2018-03-21T16:40:31.281Z,95165.30
2018-03-21T16:42:57.984Z,95181.46
2018-03-21T16:45:24.973Z,95182.47
2018-03-21T16:47:54.203Z,95160.70
2018-03-21T16:50:22.360Z,95181.38
2018-03-21T16:52:49.483Z,95179.75
2018-03-21T16:55:17.965Z,95194.77
2018-03-21T16:57:50.700Z,95192.01
2018-03-21T17:00:18.107Z,95217.75
2018-03-21T17:02:45.394Z,95227.41
2018-03-21T17:05:13.550Z,95200.03
2018-03-21T17:07:40.320Z,95233.19
2018-03-21T17:10:07.553Z,95224.29
2018-03-21T17:12:35.921Z,95248.95
2018-03-21T17:15:03.479Z,95244.26
2018-03-21T17:17:30.021Z,95233.58
2018-03-21T17:19:57.226Z,95247.27
2018-03-21T17:22:23.666Z,95259.72
2018-03-21T17:24:50.423Z,95257.01
2018-03-21T17:27:17.336Z,95288.42
2018-03-21T17:29:44.924Z,95267.69
2018-03-21T17:32:11.470Z,95254.39
2018-03-21T17:34:38.638Z,95269.02
2018-03-21T17:37:05.983Z,95279.10
2018-03-21T17:39:32.972Z,95287.33
2018-03-21T17:41:59.574Z,95291.17
2018-03-21T17:44:26.245Z,95265.48
2018-03-21T17:46:52.726Z,95289.51
2018-03-21T17:49:20.074Z,95308.06
2018-03-21T17:51:47.612Z,95319.07
2018-03-21T17:54:14.984Z,95306.30
2018-03-21T17:56:42.186Z,95305.53
2018-03-21T17:59:09.664Z,95312.73
2018-03-21T18:01:36.524Z,95319.69
2018-03-21T18:04:03.138Z,95298.22
2018-03-21T18:06:30.125Z,95308.19
2018-03-21T18:08:57.373Z,95321.36
2018-03-21T18:11:25.810Z,95318.25
2018-03-21T18:13:52.870Z,95318.80
2018-03-21T18:16:19.763Z,95330.13
2018-03-21T18:18:46.593Z,95333.83
2018-03-21T18:21:13.695Z,95332.30
2018-03-21T18:23:41.033Z,95341.18
2018-03-21T18:26:08.501Z,95349.89
2018-03-21T18:28:35.245Z,95358.31
2018-03-21T18:31:02.692Z,95370.02
2018-03-21T18:33:29.541Z,95364.69
2018-03-21T18:35:56.487Z,95368.78
2018-03-21T18:38:23.593Z,95376.41
2018-03-21T18:40:51.889Z,95386.48
2018-03-21T18:43:20.608Z,95384.80
2018-03-21T18:45:48.564Z,95393.91
2018-03-21T18:48:15.960Z,95394.90
2018-03-21T18:50:44.211Z,95388.42
2018-03-21T18:53:11.052Z,95381.02
2018-03-21T18:55:38.222Z,95397.37
2018-03-21T18:58:04.833Z,95383.28
2018-03-21T19:00:31.621Z,95408.77
2018-03-21T19:02:59.713Z,95401.66
2018-03-21T19:05:26.310Z,95412.35
2018-03-21T19:07:53.328Z,95402.33
2018-03-21T19:10:20.493Z,95414.97
2018-03-21T19:12:47.925Z,95412.58
2018-03-21T19:15:16.120Z,95410.27
2018-03-21T19:17:45.830Z,95410.36
2018-03-21T19:20:20.715Z,95412.82
2018-03-21T19:22:48.325Z,95406.12
2018-03-21T19:25:16.425Z,95411.28
2018-03-21T19:27:43.874Z,95411.76
2018-03-21T19:30:11.490Z,95425.26
2018-03-21T19:32:38.593Z,95423.51
2018-03-21T19:35:05.713Z,95418.06
2018-03-21T19:37:32.510Z,95419.47
2018-03-21T19:40:00.240Z,95427.17
2018-03-21T19:42:27.054Z,95436.35
2018-03-21T19:44:54.996Z,95438.75
2018-03-21T19:47:22.294Z,95441.19
2018-03-21T19:49:49.768Z,95435.58
2018-03-21T19:52:17.644Z,95444.34
2018-03-21T19:54:45.282Z,95445.89
2018-03-21T19:57:12.836Z,95448.05
2018-03-21T19:59:39.730Z,95454.66
2018-03-21T20:02:07.053Z,95459.81
2018-03-21T20:04:34.225Z,95474.14
2018-03-21T20:07:01.362Z,95476.47
2018-03-21T20:09:27.947Z,95487.88
2018-03-21T20:11:55.185Z,95491.80
2018-03-21T20:14:22.862Z,95477.66
2018-03-21T20:16:50.254Z,95477.95
2018-03-21T20:19:18.659Z,95497.26
2018-03-21T20:21:46.003Z,95481.20
2018-03-21T20:24:13.122Z,95473.08
2018-03-21T20:26:39.991Z,95489.23
2018-03-21T20:29:07.395Z,95488.36
2018-03-21T20:31:34.590Z,95477.08
2018-03-21T20:34:01.996Z,95491.48
2018-03-21T20:36:31.003Z,95482.95
2018-03-21T20:38:58.495Z,95494.52
2018-03-21T20:41:25.694Z,95504.76
2018-03-21T20:43:52.871Z,95495.23
2018-03-21T20:46:20.087Z,95480.27
2018-03-21T20:48:47.159Z,95482.74
2018-03-21T20:51:13.997Z,95486.08
2018-03-21T20:53:40.886Z,95491.66
2018-03-21T20:56:08.217Z,95481.06
2018-03-21T20:58:35.258Z,95489.16
2018-03-21T21:01:02.207Z,95494.58
2018-03-21T21:03:29.156Z,95500.74
2018-03-21T21:05:55.818Z,95506.59
2018-03-21T21:08:23.904Z,95495.69
2018-03-21T21:10:50.547Z,95487.46
2018-03-21T21:13:17.762Z,95479.92
2018-03-21T21:15:44.546Z,95481.05
2018-03-21T21:18:12.087Z,95487.97
2018-03-21T21:20:38.974Z,95499.47
2018-03-21T21:23:05.854Z,95502.44
2018-03-21T21:25:32.590Z,95509.22
2018-03-21T21:27:59.862Z,95520.69
2018-03-21T21:30:26.612Z,95516.10
2018-03-21T21:32:54.457Z,95508.62
2018-03-21T21:35:21.106Z,95509.70
2018-03-21T21:37:49.053Z,95529.30
2018-03-21T21:40:16.081Z,95519.92
2018-03-21T21:42:42.896Z,95525.78
2018-03-21T21:45:09.930Z,95524.10
2018-03-21T21:47:36.729Z,95525.34
2018-03-21T21:50:03.382Z,95528.11
2018-03-21T21:52:30.603Z,95509.66
2018-03-21T21:54:57.521Z,95520.91
2018-03-21T21:57:24.538Z,95516.63
2018-03-21T21:59:51.328Z,95502.27
2018-03-21T22:02:18.428Z,95515.73
2018-03-21T22:04:45.756Z,95512.31
2018-03-21T22:07:12.765Z,95522.88
2018-03-21T22:09:40.078Z,95538.58
2018-03-21T22:12:07.057Z,95528.79
2018-03-21T22:14:34.031Z,95521.88
2018-03-21T22:17:02.622Z,95518.73
2018-03-21T22:19:29.484Z,95521.70
2018-03-21T22:21:56.227Z,95513.78
2018-03-21T22:24:23.342Z,95502.46
2018-03-21T22:26:50.278Z,95505.05
2018-03-21T22:29:17.111Z,95506.91
2018-03-21T22:31:44.007Z,95523.19
2018-03-21T22:34:18.737Z,95521.44
2018-03-21T22:36:45.458Z,95524.73
2018-03-21T22:39:12.885Z,95524.23
2018-03-21T22:41:40.318Z,95512.43
2018-03-21T22:44:07.774Z,95524.28
2018-03-21T22:46:34.574Z,95511.78
2018-03-21T22:49:01.918Z,95510.73
2018-03-21T22:51:29.728Z,95508.84
2018-03-21T22:53:56.693Z,95523.33
2018-03-21T22:56:23.635Z,95515.62
2018-03-21T22:58:51.500Z,95504.74
2018-03-21T23:01:18.451Z,95516.56
2018-03-21T23:03:46.069Z,95517.34
2018-03-21T23:06:13.379Z,95518.19
2018-03-21T23:08:40.939Z,95522.95
2018-03-21T23:11:08.335Z,95512.02
2018-03-21T23:13:36.277Z,95516.62
2018-03-21T23:16:03.699Z,95521.43
2018-03-21T23:18:31.106Z,95529.02
2018-03-21T23:20:57.703Z,95521.44
2018-03-21T23:23:24.511Z,95523.59
2018-03-21T23:25:51.939Z,95514.28
2018-03-21T23:28:19.865Z,95519.72
2018-03-21T23:30:48.772Z,95529.33
2018-03-21T23:33:16.301Z,95526.61
2018-03-21T23:35:43.353Z,95538.92
2018-03-21T23:38:10.121Z,95536.97
2018-03-21T23:40:38.151Z,95528.16
2018-03-21T23:43:04.766Z,95527.97
2018-03-21T23:45:31.526Z,95527.66
2018-03-21T23:48:05.970Z,95530.14
2018-03-21T23:50:33.050Z,95525.23
2018-03-21T23:53:00.191Z,95521.88
2018-03-21T23:55:26.865Z,95525.34
2018-03-21T23:57:53.750Z,95522.13
